createdAt,value
2023-03-17T00:01:16.429Z,101029.81
2023-03-17T00:06:33.030Z,101021.31
2023-03-17T00:11:36.088Z,101029.31
2023-03-17T00:16:43.941Z,101021.78
2023-03-17T00:21:48.263Z,101015.97
2023-03-17T00:26:51.221Z,101016.16
2023-03-17T00:31:55.308Z,101008.63
2023-03-17T00:36:58.331Z,101019.03
2023-03-17T00:42:01.624Z,101007.13
2023-03-17T00:47:05.062Z,101007.31
2023-03-17T00:52:09.307Z,101001.34
2023-03-17T00:57:12.726Z,101008.38
2023-03-17T01:02:15.777Z,101007.72
2023-03-17T01:07:18.572Z,101007.81
2023-03-17T01:12:21.689Z,101008.06
2023-03-17T01:17:24.657Z,101004.75
2023-03-17T01:22:27.938Z,100998.84
2023-03-17T01:27:36.697Z,100999.88
2023-03-17T01:32:39.687Z,101010.28
2023-03-17T01:37:42.732Z,101012.09
2023-03-17T01:42:54.445Z,101017.47
2023-03-17T01:47:57.437Z,101007.13
2023-03-17T01:53:00.536Z,100997.91
2023-03-17T01:58:03.677Z,100999.66
2023-03-17T02:03:06.627Z,101002.44
2023-03-17T02:08:16.603Z,101021.66
2023-03-17T02:13:19.861Z,101030.50
2023-03-17T02:18:24.133Z,101044.50
2023-03-17T02:23:27.228Z,101061.91
2023-03-17T02:28:31.694Z,101064.75
2023-03-17T02:33:34.728Z,101051.75
2023-03-17T02:38:37.983Z,101048.13
2023-03-17T02:43:41.674Z,101046.19
2023-03-17T02:48:47.028Z,101042.81
2023-03-17T02:53:50.243Z,101040.28
2023-03-17T02:58:53.473Z,101050.91
2023-03-17T03:03:57.679Z,101053.00
2023-03-17T03:09:00.538Z,101051.63
2023-03-17T03:14:03.610Z,101048.41
2023-03-17T03:19:08.364Z,101051.00
2023-03-17T03:24:11.722Z,101052.69
2023-03-17T03:29:14.765Z,101056.19
2023-03-17T03:34:17.756Z,101058.09
2023-03-17T03:39:20.742Z,101053.25
2023-03-17T03:44:24.607Z,101055.16
2023-03-17T03:49:27.767Z,101045.81
2023-03-17T03:54:30.927Z,101046.81
2023-03-17T03:59:34.058Z,101044.44
2023-03-17T04:04:38.708Z,101047.97
2023-03-17T04:09:42.566Z,101048.94
2023-03-17T04:14:45.762Z,101044.81
2023-03-17T04:19:49.308Z,101038.91
2023-03-17T04:24:52.388Z,101041.66
2023-03-17T04:29:55.389Z,101047.78
2023-03-17T04:34:58.584Z,101041.75
2023-03-17T04:40:01.638Z,101039.13
2023-03-17T04:45:06.865Z,101041.78
2023-03-17T04:50:11.808Z,101060.06
2023-03-17T04:55:15.011Z,101059.34
2023-03-17T05:00:18.705Z,101059.41
2023-03-17T05:05:21.732Z,101061.88
2023-03-17T05:10:25.053Z,101058.28
2023-03-17T05:15:28.165Z,101069.44
2023-03-17T05:20:32.078Z,101071.66
2023-03-17T05:25:35.758Z,101075.69
2023-03-17T05:30:39.140Z,101074.19
2023-03-17T05:35:43.014Z,101077.00
2023-03-17T05:40:46.139Z,101072.88
2023-03-17T05:45:50.737Z,101060.09
2023-03-17T05:50:54.151Z,101077.66
2023-03-17T05:55:56.994Z,101072.72
2023-03-17T06:01:00.009Z,101082.38
2023-03-17T06:06:03.027Z,101072.75
2023-03-17T06:11:06.811Z,101066.53
2023-03-17T06:16:09.937Z,101081.16
2023-03-17T06:21:13.852Z,101087.09
2023-03-17T06:26:16.779Z,101087.00
2023-03-17T06:31:19.926Z,101090.25
2023-03-17T06:36:23.428Z,101089.03
2023-03-17T06:41:27.672Z,101094.56
2023-03-17T06:46:30.553Z,101084.50
2023-03-17T06:51:34.363Z,101093.25
2023-03-17T06:56:37.350Z,101091.72
2023-03-17T07:01:40.878Z,101103.28
2023-03-17T07:06:44.994Z,101094.84
2023-03-17T07:11:47.990Z,101104.81
2023-03-17T07:16:51.041Z,101097.28
2023-03-17T07:21:57.706Z,101107.25
2023-03-17T07:27:00.777Z,101102.28
2023-03-17T07:32:06.504Z,101107.00
2023-03-17T07:37:10.442Z,101103.97
2023-03-17T07:42:17.186Z,101109.84
2023-03-17T07:47:20.626Z,101104.56
2023-03-17T07:52:23.700Z,101098.28
2023-03-17T07:57:27.415Z,101092.56
2023-03-17T08:02:31.881Z,101093.56
2023-03-17T08:07:37.565Z,101089.25
2023-03-17T08:12:42.666Z,101078.84
2023-03-17T08:17:45.734Z,101071.13
2023-03-17T08:22:48.745Z,101068.34
2023-03-17T08:27:52.151Z,101069.75
2023-03-17T08:32:55.049Z,101060.34
2023-03-17T08:37:58.117Z,101062.84
2023-03-17T08:43:01.372Z,101052.63
2023-03-17T08:48:04.486Z,101050.97
2023-03-17T08:53:08.555Z,101046.09
2023-03-17T08:58:11.513Z,101049.06
2023-03-17T09:03:15.483Z,101048.28
2023-03-17T09:08:18.497Z,101051.66
2023-03-17T09:13:22.820Z,101042.75
2023-03-17T09:18:26.129Z,101042.03
2023-03-17T09:23:29.287Z,101038.53
2023-03-17T09:28:32.903Z,101029.28
2023-03-17T09:33:35.917Z,101029.81
2023-03-17T09:38:39.259Z,101023.50
2023-03-17T09:44:00.606Z,101031.06
2023-03-17T09:49:08.355Z,101015.56
2023-03-17T09:54:34.190Z,101008.41
2023-03-17T09:59:48.152Z,100994.81
2023-03-17T10:04:52.011Z,100997.31
2023-03-17T10:10:24.362Z,100989.34
2023-03-17T10:16:01.597Z,100985.22
2023-03-17T10:21:07.981Z,100978.16
2023-03-17T10:26:46.661Z,100974.00
2023-03-17T10:31:56.374Z,100954.97
2023-03-17T10:37:15.585Z,100956.38
2023-03-17T10:42:30.348Z,100962.22
2023-03-17T10:47:44.733Z,100959.56
2023-03-17T10:52:53.661Z,100951.22
2023-03-17T10:58:15.572Z,100956.50
2023-03-17T11:03:39.985Z,100935.69
2023-03-17T11:08:49.505Z,100933.03
2023-03-17T11:14:06.171Z,100918.78
2023-03-17T11:19:17.009Z,100914.13
2023-03-17T11:24:51.497Z,100904.00
2023-03-17T11:30:19.129Z,100888.16
2023-03-17T11:35:44.237Z,100881.47
2023-03-17T11:41:33.859Z,100875.31
2023-03-17T11:46:46.691Z,100867.41
2023-03-17T11:52:16.437Z,100845.25
2023-03-17T11:57:52.941Z,100847.25
2023-03-17T12:03:09.164Z,100821.38
2023-03-17T12:08:35.727Z,100816.91
2023-03-17T12:13:57.061Z,100820.56
2023-03-17T12:19:42.584Z,100811.31
2023-03-17T12:25:16.692Z,100825.06
2023-03-17T12:30:54.508Z,100802.13
2023-03-17T12:35:59.022Z,100798.53
2023-03-17T12:41:45.541Z,100807.56
2023-03-17T12:47:23.327Z,100791.41
2023-03-17T12:52:37.610Z,100793.34
2023-03-17T12:58:08.109Z,100786.03
2023-03-17T13:03:23.948Z,100775.69
2023-03-17T13:08:45.283Z,100779.56
2023-03-17T13:14:08.743Z,100770.69
2023-03-17T13:19:33.612Z,100772.69
2023-03-17T13:24:52.322Z,100771.78
2023-03-17T13:29:55.337Z,100762.84
2023-03-17T13:35:01.753Z,100766.53
2023-03-17T13:40:13.667Z,100776.16
2023-03-17T13:45:43.185Z,100772.84
2023-03-17T13:50:47.944Z,100761.16
2023-03-17T13:56:31.721Z,100761.50
2023-03-17T14:01:51.578Z,100754.81
2023-03-17T14:07:00.733Z,100747.16
2023-03-17T14:12:24.878Z,100734.19
2023-03-17T14:17:47.110Z,100721.16
2023-03-17T14:23:02.331Z,100709.53
2023-03-17T14:28:12.418Z,100715.28
2023-03-17T14:33:37.972Z,100704.28
2023-03-17T14:38:53.182Z,100701.63
2023-03-17T14:44:01.600Z,100686.69
2023-03-17T14:49:20.448Z,100681.91
2023-03-17T14:54:35.254Z,100675.97
2023-03-17T14:59:41.431Z,100670.84
2023-03-17T15:05:12.920Z,100667.13
2023-03-17T15:10:22.938Z,100659.84
2023-03-17T15:15:39.193Z,100649.75
2023-03-17T15:20:44.363Z,100646.19
2023-03-17T15:25:56.390Z,100647.34
2023-03-17T15:31:13.090Z,100636.75
2023-03-17T15:36:31.451Z,100631.94
2023-03-17T15:41:34.895Z,100643.81
2023-03-17T15:46:37.678Z,100626.97
2023-03-17T15:51:40.645Z,100641.84
2023-03-17T15:56:43.705Z,100638.28
2023-03-17T16:01:46.951Z,100631.31
2023-03-17T16:06:50.034Z,100635.94
2023-03-17T16:11:52.988Z,100642.94
2023-03-17T16:16:56.183Z,100633.25
2023-03-17T16:21:59.343Z,100637.28
2023-03-17T16:27:02.638Z,100642.09
2023-03-17T16:32:09.147Z,100655.75
2023-03-17T16:37:21.164Z,100649.44
2023-03-17T16:42:24.619Z,100660.34
2023-03-17T16:47:27.772Z,100663.72
2023-03-17T16:52:31.354Z,100667.00
2023-03-17T16:57:34.472Z,100666.63
2023-03-17T17:02:37.492Z,100681.91
2023-03-17T17:07:40.772Z,100674.34
2023-03-17T17:12:44.192Z,100663.94
2023-03-17T17:18:01.365Z,100674.00
2023-03-17T17:23:05.006Z,100674.19
2023-03-17T17:28:08.805Z,100672.56
2023-03-17T17:33:12.711Z,100674.28
2023-03-17T17:38:29.142Z,100670.69
2023-03-17T17:43:32.515Z,100678.22
2023-03-17T17:48:35.710Z,100676.66
2023-03-17T17:53:39.253Z,100683.56
2023-03-17T17:58:43.232Z,100676.59
2023-03-17T18:03:46.464Z,100688.06
2023-03-17T18:08:50.384Z,100695.91
2023-03-17T18:13:53.440Z,100691.56
2023-03-17T18:18:57.859Z,100680.16
2023-03-17T18:24:01.508Z,100686.19
2023-03-17T18:29:05.997Z,100693.31
2023-03-17T18:34:19.511Z,100698.72
2023-03-17T18:39:23.004Z,100693.72
2023-03-17T18:44:25.849Z,100703.53
2023-03-17T18:49:29.122Z,100694.22
2023-03-17T18:54:32.342Z,100701.16
2023-03-17T18:59:35.636Z,100702.00
2023-03-17T19:04:45.877Z,100695.94
2023-03-17T19:09:49.578Z,100702.09
2023-03-17T19:14:52.878Z,100702.09
2023-03-17T19:19:56.162Z,100707.41
2023-03-17T19:24:59.452Z,100704.88
2023-03-17T19:30:02.875Z,100704.00
2023-03-17T19:35:07.980Z,100713.41
2023-03-17T19:40:13.400Z,100700.88
2023-03-17T19:45:16.601Z,100695.50
2023-03-17T19:50:20.662Z,100688.97
2023-03-17T19:55:25.396Z,100680.78
2023-03-17T20:00:28.325Z,100687.31
2023-03-17T20:05:31.347Z,100682.59
2023-03-17T20:10:34.601Z,100674.50
2023-03-17T20:15:38.323Z,100682.53
2023-03-17T20:20:54.086Z,100677.50
2023-03-17T20:25:57.469Z,100675.06
2023-03-17T20:31:04.758Z,100676.28
2023-03-17T20:36:08.536Z,100673.19
2023-03-17T20:41:18.603Z,100683.22
2023-03-17T20:46:24.819Z,100676.75
2023-03-17T20:51:28.288Z,100681.63
2023-03-17T20:56:34.297Z,100681.06
2023-03-17T21:01:38.904Z,100670.03
2023-03-17T21:06:42.901Z,100674.72
2023-03-17T21:11:46.718Z,100662.19
2023-03-17T21:16:50.423Z,100673.84
2023-03-17T21:21:53.964Z,100667.31
2023-03-17T21:26:57.560Z,100655.63
2023-03-17T21:32:02.055Z,100649.00
2023-03-17T21:37:05.893Z,100640.78
2023-03-17T21:42:09.749Z,100650.59
2023-03-17T21:47:12.785Z,100645.53
2023-03-17T21:52:16.293Z,100659.53
2023-03-17T21:57:19.450Z,100659.78
2023-03-17T22:02:23.833Z,100657.53
2023-03-17T22:07:26.856Z,100671.69
2023-03-17T22:12:29.649Z,100666.81
2023-03-17T22:17:32.725Z,100664.56
2023-03-17T22:22:36.045Z,100668.22
2023-03-17T22:27:39.015Z,100662.31
2023-03-17T22:32:42.778Z,100654.75
2023-03-17T22:37:45.962Z,100653.06
2023-03-17T22:42:48.931Z,100660.13
2023-03-17T22:47:52.443Z,100660.34
2023-03-17T22:52:55.514Z,100658.81
2023-03-17T22:57:58.432Z,100653.94
2023-03-17T23:03:01.582Z,100650.75
2023-03-17T23:08:04.950Z,100638.78
2023-03-17T23:13:08.600Z,100644.53
2023-03-17T23:18:12.176Z,100650.09
2023-03-17T23:23:15.410Z,100652.28
2023-03-17T23:28:20.053Z,100645.66
2023-03-17T23:33:24.118Z,100652.59
2023-03-17T23:38:27.961Z,100646.81
2023-03-17T23:43:31.233Z,100647.06
2023-03-17T23:48:34.182Z,100636.19
2023-03-17T23:53:39.705Z,100639.47
2023-03-17T23:58:43.681Z,100647.72
